sensor_id;sensor_type;location;lat;lon;timestamp;P1;durP1;ratioP1;P2;durP2;ratioP2
68938;SDS011;59064;45.294;11.816;2022-10-16T00:00:17;54.20;;;30.30;;
68938;SDS011;59064;45.294;11.816;2022-10-16T00:02:43;61.90;;;34.90;;
68938;SDS011;59064;45.294;11.816;2022-10-16T00:05:08;59.30;;;32.10;;
68938;SDS011;59064;45.294;11.816;2022-10-16T00:07:34;56.70;;;32.10;;
68938;SDS011;59064;45.294;11.816;2022-10-16T00:09:59;61.80;;;34.30;;
68938;SDS011;59064;45.294;11.816;2022-10-16T00:12:24;69.90;;;36.10;;
68938;SDS011;59064;45.294;11.816;2022-10-16T00:14:50;66.70;;;35.00;;
68938;SDS011;59064;45.294;11.816;2022-10-16T00:17:15;73.60;;;36.20;;
68938;SDS011;59064;45.294;11.816;2022-10-16T00:19:41;64.50;;;35.20;;
68938;SDS011;59064;45.294;11.816;2022-10-16T00:22:06;54.90;;;30.20;;
68938;SDS011;59064;45.294;11.816;2022-10-16T00:24:32;67.20;;;38.00;;
68938;SDS011;59064;45.294;11.816;2022-10-16T00:26:57;65.20;;;35.20;;
68938;SDS011;59064;45.294;11.816;2022-10-16T00:29:23;66.70;;;36.90;;
68938;SDS011;59064;45.294;11.816;2022-10-16T00:31:48;65.90;;;37.70;;
68938;SDS011;59064;45.294;11.816;2022-10-16T00:34:14;61.90;;;35.60;;
68938;SDS011;59064;45.294;11.816;2022-10-16T00:36:39;68.70;;;36.20;;
68938;SDS011;59064;45.294;11.816;2022-10-16T00:39:05;68.70;;;35.70;;
68938;SDS011;59064;45.294;11.816;2022-10-16T00:41:30;60.30;;;31.40;;
68938;SDS011;59064;45.294;11.816;2022-10-16T00:43:57;66.80;;;34.10;;
68938;SDS011;59064;45.294;11.816;2022-10-16T00:49:14;69.80;;;37.30;;
68938;SDS011;59064;45.294;11.816;2022-10-16T00:51:42;73.50;;;37.70;;
68938;SDS011;59064;45.294;11.816;2022-10-16T00:54:11;71.20;;;36.80;;
68938;SDS011;59064;45.294;11.816;2022-10-16T00:56:48;76.30;;;40.00;;
68938;SDS011;59064;45.294;11.816;2022-10-16T00:59:16;66.30;;;37.20;;
68938;SDS011;59064;45.294;11.816;2022-10-16T01:01:44;66.80;;;37.60;;
68938;SDS011;59064;45.294;11.816;2022-10-16T01:04:10;65.30;;;35.60;;
68938;SDS011;59064;45.294;11.816;2022-10-16T01:06:42;58.40;;;30.80;;
68938;SDS011;59064;45.294;11.816;2022-10-16T01:14:45;66.10;;;36.10;;
68938;SDS011;59064;45.294;11.816;2022-10-16T01:17:14;69.50;;;38.10;;
68938;SDS011;59064;45.294;11.816;2022-10-16T01:22:55;71.40;;;40.00;;
68938;SDS011;59064;45.294;11.816;2022-10-16T01:25:49;71.90;;;39.40;;
68938;SDS011;59064;45.294;11.816;2022-10-16T01:28:34;69.50;;;39.10;;
68938;SDS011;59064;45.294;11.816;2022-10-16T01:31:08;68.30;;;38.50;;
68938;SDS011;59064;45.294;11.816;2022-10-16T01:33:42;70.90;;;40.70;;
68938;SDS011;59064;45.294;11.816;2022-10-16T01:36:16;73.10;;;40.40;;
68938;SDS011;59064;45.294;11.816;2022-10-16T01:38:51;69.50;;;36.90;;
68938;SDS011;59064;45.294;11.816;2022-10-16T01:41:22;65.40;;;34.20;;
68938;SDS011;59064;45.294;11.816;2022-10-16T01:43:54;65.30;;;34.40;;
68938;SDS011;59064;45.294;11.816;2022-10-16T01:46:27;72.30;;;38.00;;
68938;SDS011;59064;45.294;11.816;2022-10-16T01:48:55;69.30;;;36.50;;
68938;SDS011;59064;45.294;11.816;2022-10-16T01:51:21;71.90;;;38.30;;
68938;SDS011;59064;45.294;11.816;2022-10-16T01:53:49;73.60;;;40.60;;
68938;SDS011;59064;45.294;11.816;2022-10-16T01:56:18;76.50;;;41.30;;
68938;SDS011;59064;45.294;11.816;2022-10-16T01:58:52;74.20;;;39.00;;
68938;SDS011;59064;45.294;11.816;2022-10-16T02:01:21;67.10;;;34.10;;
68938;SDS011;59064;45.294;11.816;2022-10-16T02:03:50;70.90;;;36.50;;
68938;SDS011;59064;45.294;11.816;2022-10-16T02:06:21;74.20;;;37.10;;
68938;SDS011;59064;45.294;11.816;2022-10-16T02:08:48;62.50;;;35.20;;
68938;SDS011;59064;45.294;11.816;2022-10-16T02:11:13;68.20;;;35.30;;
68938;SDS011;59064;45.294;11.816;2022-10-16T02:13:41;70.10;;;36.20;;
68938;SDS011;59064;45.294;11.816;2022-10-16T02:16:12;73.50;;;39.20;;
68938;SDS011;59064;45.294;11.816;2022-10-16T02:18:39;68.30;;;37.30;;
68938;SDS011;59064;45.294;11.816;2022-10-16T02:21:11;71.20;;;39.20;;
68938;SDS011;59064;45.294;11.816;2022-10-16T02:24:08;69.30;;;36.30;;
68938;SDS011;59064;45.294;11.816;2022-10-16T02:29:39;71.40;;;39.60;;
68938;SDS011;59064;45.294;11.816;2022-10-16T02:32:10;61.50;;;34.20;;
68938;SDS011;59064;45.294;11.816;2022-10-16T02:34:37;68.60;;;35.30;;
68938;SDS011;59064;45.294;11.816;2022-10-16T02:37:05;71.80;;;36.80;;
68938;SDS011;59064;45.294;11.816;2022-10-16T02:39:32;61.90;;;31.40;;
68938;SDS011;59064;45.294;11.816;2022-10-16T02:41:58;61.30;;;32.60;;
68938;SDS011;59064;45.294;11.816;2022-10-16T02:44:24;62.00;;;33.40;;
68938;SDS011;59064;45.294;11.816;2022-10-16T02:46:49;68.20;;;36.00;;
68938;SDS011;59064;45.294;11.816;2022-10-16T02:49:15;61.50;;;31.50;;
68938;SDS011;59064;45.294;11.816;2022-10-16T02:51:41;68.40;;;37.90;;
68938;SDS011;59064;45.294;11.816;2022-10-16T02:54:06;59.10;;;32.70;;
68938;SDS011;59064;45.294;11.816;2022-10-16T02:56:31;63.50;;;33.60;;
68938;SDS011;59064;45.294;11.816;2022-10-16T02:58:57;64.30;;;32.20;;
68938;SDS011;59064;45.294;11.816;2022-10-16T03:01:23;67.80;;;34.80;;
68938;SDS011;59064;45.294;11.816;2022-10-16T03:03:49;68.00;;;34.10;;
68938;SDS011;59064;45.294;11.816;2022-10-16T03:06:14;64.40;;;33.70;;
68938;SDS011;59064;45.294;11.816;2022-10-16T03:08:40;72.80;;;38.20;;
68938;SDS011;59064;45.294;11.816;2022-10-16T03:11:06;73.40;;;41.40;;
68938;SDS011;59064;45.294;11.816;2022-10-16T03:13:31;76.30;;;41.70;;
68938;SDS011;59064;45.294;11.816;2022-10-16T03:15:56;79.10;;;42.30;;
68938;SDS011;59064;45.294;11.816;2022-10-16T03:18:22;75.90;;;41.20;;
68938;SDS011;59064;45.294;11.816;2022-10-16T03:20:47;79.30;;;42.10;;
68938;SDS011;59064;45.294;11.816;2022-10-16T03:23:14;81.80;;;41.90;;
68938;SDS011;59064;45.294;11.816;2022-10-16T03:25:39;83.20;;;42.20;;
68938;SDS011;59064;45.294;11.816;2022-10-16T03:28:05;78.20;;;41.80;;
68938;SDS011;59064;45.294;11.816;2022-10-16T03:30:31;80.80;;;44.10;;
68938;SDS011;59064;45.294;11.816;2022-10-16T03:32:56;82.70;;;45.00;;
68938;SDS011;59064;45.294;11.816;2022-10-16T03:35:22;83.20;;;44.80;;
68938;SDS011;59064;45.294;11.816;2022-10-16T03:37:49;89.50;;;45.10;;
68938;SDS011;59064;45.294;11.816;2022-10-16T03:40:15;83.70;;;45.40;;
68938;SDS011;59064;45.294;11.816;2022-10-16T03:42:42;84.80;;;45.80;;
68938;SDS011;59064;45.294;11.816;2022-10-16T03:45:08;82.70;;;43.70;;
68938;SDS011;59064;45.294;11.816;2022-10-16T03:47:34;86.30;;;46.00;;
68938;SDS011;59064;45.294;11.816;2022-10-16T03:50:00;85.60;;;44.40;;
68938;SDS011;59064;45.294;11.816;2022-10-16T03:52:26;86.60;;;47.20;;
68938;SDS011;59064;45.294;11.816;2022-10-16T03:54:51;90.80;;;47.00;;
68938;SDS011;59064;45.294;11.816;2022-10-16T03:57:17;93.80;;;48.90;;
68938;SDS011;59064;45.294;11.816;2022-10-16T03:59:42;88.30;;;45.90;;
68938;SDS011;59064;45.294;11.816;2022-10-16T04:02:08;86.30;;;45.30;;
68938;SDS011;59064;45.294;11.816;2022-10-16T04:04:34;84.30;;;45.50;;
68938;SDS011;59064;45.294;11.816;2022-10-16T04:06:59;87.50;;;46.30;;
68938;SDS011;59064;45.294;11.816;2022-10-16T04:09:25;88.00;;;48.20;;
68938;SDS011;59064;45.294;11.816;2022-10-16T04:11:50;95.60;;;48.00;;
68938;SDS011;59064;45.294;11.816;2022-10-16T04:14:16;96.40;;;48.10;;
68938;SDS011;59064;45.294;11.816;2022-10-16T04:16:41;94.20;;;48.90;;
68938;SDS011;59064;45.294;11.816;2022-10-16T04:19:07;94.80;;;49.40;;
68938;SDS011;59064;45.294;11.816;2022-10-16T04:21:32;99.90;;;53.00;;
68938;SDS011;59064;45.294;11.816;2022-10-16T04:23:58;97.00;;;49.90;;
68938;SDS011;59064;45.294;11.816;2022-10-16T04:26:23;96.10;;;48.90;;
68938;SDS011;59064;45.294;11.816;2022-10-16T04:28:48;92.90;;;45.30;;
68938;SDS011;59064;45.294;11.816;2022-10-16T04:31:14;90.60;;;47.40;;
68938;SDS011;59064;45.294;11.816;2022-10-16T04:33:42;81.20;;;40.40;;
68938;SDS011;59064;45.294;11.816;2022-10-16T04:36:08;90.60;;;47.80;;
68938;SDS011;59064;45.294;11.816;2022-10-16T04:38:33;79.90;;;43.80;;
68938;SDS011;59064;45.294;11.816;2022-10-16T04:40:59;89.50;;;48.70;;
68938;SDS011;59064;45.294;11.816;2022-10-16T04:43:25;95.30;;;49.20;;
68938;SDS011;59064;45.294;11.816;2022-10-16T04:45:51;96.60;;;49.20;;
68938;SDS011;59064;45.294;11.816;2022-10-16T04:48:17;92.50;;;43.40;;
68938;SDS011;59064;45.294;11.816;2022-10-16T04:50:43;91.20;;;46.20;;
68938;SDS011;59064;45.294;11.816;2022-10-16T04:53:08;92.20;;;48.30;;
68938;SDS011;59064;45.294;11.816;2022-10-16T04:55:34;91.30;;;45.40;;
68938;SDS011;59064;45.294;11.816;2022-10-16T04:57:59;90.60;;;46.90;;
68938;SDS011;59064;45.294;11.816;2022-10-16T05:00:25;92.90;;;45.70;;
68938;SDS011;59064;45.294;11.816;2022-10-16T05:02:51;81.60;;;40.20;;
68938;SDS011;59064;45.294;11.816;2022-10-16T05:05:16;87.60;;;45.20;;
68938;SDS011;59064;45.294;11.816;2022-10-16T05:07:44;88.00;;;46.30;;
68938;SDS011;59064;45.294;11.816;2022-10-16T05:10:11;83.90;;;45.20;;
68938;SDS011;59064;45.294;11.816;2022-10-16T05:12:37;99.40;;;48.30;;
68938;SDS011;59064;45.294;11.816;2022-10-16T05:15:02;96.40;;;48.20;;
68938;SDS011;59064;45.294;11.816;2022-10-16T05:17:28;95.20;;;47.20;;
68938;SDS011;59064;45.294;11.816;2022-10-16T05:19:53;94.70;;;48.20;;
68938;SDS011;59064;45.294;11.816;2022-10-16T05:22:19;98.20;;;48.10;;
68938;SDS011;59064;45.294;11.816;2022-10-16T05:24:44;90.90;;;48.10;;
68938;SDS011;59064;45.294;11.816;2022-10-16T05:27:10;88.30;;;43.60;;
68938;SDS011;59064;45.294;11.816;2022-10-16T05:29:36;89.10;;;45.10;;
68938;SDS011;59064;45.294;11.816;2022-10-16T05:32:02;93.30;;;47.90;;
68938;SDS011;59064;45.294;11.816;2022-10-16T05:34:28;99.90;;;49.10;;
68938;SDS011;59064;45.294;11.816;2022-10-16T05:36:53;87.10;;;43.90;;
68938;SDS011;59064;45.294;11.816;2022-10-16T05:39:19;91.00;;;47.30;;
68938;SDS011;59064;45.294;11.816;2022-10-16T05:41:44;97.00;;;49.80;;
68938;SDS011;59064;45.294;11.816;2022-10-16T05:44:10;99.00;;;49.10;;
68938;SDS011;59064;45.294;11.816;2022-10-16T05:46:36;103.30;;;52.60;;
68938;SDS011;59064;45.294;11.816;2022-10-16T05:49:01;99.70;;;49.90;;
68938;SDS011;59064;45.294;11.816;2022-10-16T05:51:27;93.60;;;47.00;;
68938;SDS011;59064;45.294;11.816;2022-10-16T05:53:52;89.80;;;46.70;;
68938;SDS011;59064;45.294;11.816;2022-10-16T05:56:18;95.40;;;46.50;;
68938;SDS011;59064;45.294;11.816;2022-10-16T05:58:44;92.30;;;47.80;;
68938;SDS011;59064;45.294;11.816;2022-10-16T06:01:14;89.70;;;44.40;;
68938;SDS011;59064;45.294;11.816;2022-10-16T06:03:41;97.00;;;50.00;;
68938;SDS011;59064;45.294;11.816;2022-10-16T06:06:10;78.20;;;39.20;;
68938;SDS011;59064;45.294;11.816;2022-10-16T06:08:37;89.70;;;47.60;;
68938;SDS011;59064;45.294;11.816;2022-10-16T06:11:10;86.00;;;43.40;;
68938;SDS011;59064;45.294;11.816;2022-10-16T06:13:39;89.80;;;48.40;;
68938;SDS011;59064;45.294;11.816;2022-10-16T06:16:06;79.00;;;40.00;;
68938;SDS011;59064;45.294;11.816;2022-10-16T06:18:32;84.60;;;44.10;;
68938;SDS011;59064;45.294;11.816;2022-10-16T06:20:58;85.00;;;44.70;;
68938;SDS011;59064;45.294;11.816;2022-10-16T06:23:24;82.60;;;42.70;;
68938;SDS011;59064;45.294;11.816;2022-10-16T06:25:50;86.50;;;44.70;;
68938;SDS011;59064;45.294;11.816;2022-10-16T06:28:16;79.90;;;41.70;;
68938;SDS011;59064;45.294;11.816;2022-10-16T06:30:41;79.50;;;45.70;;
68938;SDS011;59064;45.294;11.816;2022-10-16T06:33:11;87.00;;;45.40;;
68938;SDS011;59064;45.294;11.816;2022-10-16T06:35:36;85.50;;;44.60;;
68938;SDS011;59064;45.294;11.816;2022-10-16T06:38:02;86.30;;;46.80;;
68938;SDS011;59064;45.294;11.816;2022-10-16T06:40:27;84.60;;;44.90;;
68938;SDS011;59064;45.294;11.816;2022-10-16T06:42:56;85.20;;;45.10;;
68938;SDS011;59064;45.294;11.816;2022-10-16T06:45:22;86.70;;;45.00;;
68938;SDS011;59064;45.294;11.816;2022-10-16T06:47:47;74.90;;;39.30;;
68938;SDS011;59064;45.294;11.816;2022-10-16T06:50:13;75.10;;;39.40;;
68938;SDS011;59064;45.294;11.816;2022-10-16T06:52:38;72.40;;;38.80;;
68938;SDS011;59064;45.294;11.816;2022-10-16T06:55:04;83.00;;;43.40;;
68938;SDS011;59064;45.294;11.816;2022-10-16T06:57:30;86.10;;;45.40;;
68938;SDS011;59064;45.294;11.816;2022-10-16T06:59:56;73.10;;;39.80;;
68938;SDS011;59064;45.294;11.816;2022-10-16T07:02:22;66.90;;;33.90;;
68938;SDS011;59064;45.294;11.816;2022-10-16T07:04:47;81.20;;;43.50;;
68938;SDS011;59064;45.294;11.816;2022-10-16T07:07:13;76.40;;;40.40;;
68938;SDS011;59064;45.294;11.816;2022-10-16T07:09:38;78.50;;;42.50;;
68938;SDS011;59064;45.294;11.816;2022-10-16T07:12:05;72.30;;;39.50;;
68938;SDS011;59064;45.294;11.816;2022-10-16T07:14:31;72.40;;;39.80;;
68938;SDS011;59064;45.294;11.816;2022-10-16T07:16:56;78.90;;;41.40;;
68938;SDS011;59064;45.294;11.816;2022-10-16T07:19:22;78.90;;;44.60;;
68938;SDS011;59064;45.294;11.816;2022-10-16T07:21:48;79.30;;;43.40;;
68938;SDS011;59064;45.294;11.816;2022-10-16T07:24:14;71.40;;;40.90;;
68938;SDS011;59064;45.294;11.816;2022-10-16T07:26:41;75.50;;;39.90;;
68938;SDS011;59064;45.294;11.816;2022-10-16T07:29:18;70.00;;;37.90;;
68938;SDS011;59064;45.294;11.816;2022-10-16T07:31:46;66.30;;;32.70;;
68938;SDS011;59064;45.294;11.816;2022-10-16T07:34:13;78.80;;;42.30;;
68938;SDS011;59064;45.294;11.816;2022-10-16T07:36:40;73.20;;;38.00;;
68938;SDS011;59064;45.294;11.816;2022-10-16T07:39:06;77.70;;;41.80;;
68938;SDS011;59064;45.294;11.816;2022-10-16T07:41:32;75.40;;;43.10;;
68938;SDS011;59064;45.294;11.816;2022-10-16T07:44:02;74.40;;;44.50;;
68938;SDS011;59064;45.294;11.816;2022-10-16T07:46:28;72.20;;;41.60;;
68938;SDS011;59064;45.294;11.816;2022-10-16T07:48:54;73.50;;;39.90;;
68938;SDS011;59064;45.294;11.816;2022-10-16T07:51:21;78.00;;;43.00;;
68938;SDS011;59064;45.294;11.816;2022-10-16T07:53:48;65.50;;;34.70;;
68938;SDS011;59064;45.294;11.816;2022-10-16T07:56:15;74.40;;;42.10;;
68938;SDS011;59064;45.294;11.816;2022-10-16T07:58:42;73.70;;;42.30;;
68938;SDS011;59064;45.294;11.816;2022-10-16T08:01:09;76.40;;;42.50;;
68938;SDS011;59064;45.294;11.816;2022-10-16T08:03:36;71.70;;;42.60;;
68938;SDS011;59064;45.294;11.816;2022-10-16T08:06:02;77.50;;;41.40;;
68938;SDS011;59064;45.294;11.816;2022-10-16T08:08:29;73.60;;;40.30;;
68938;SDS011;59064;45.294;11.816;2022-10-16T08:10:54;72.30;;;44.00;;
68938;SDS011;59064;45.294;11.816;2022-10-16T08:13:20;63.30;;;34.50;;
68938;SDS011;59064;45.294;11.816;2022-10-16T08:15:46;66.30;;;39.50;;
68938;SDS011;59064;45.294;11.816;2022-10-16T08:18:13;62.10;;;35.30;;
68938;SDS011;59064;45.294;11.816;2022-10-16T08:20:39;68.60;;;43.80;;
68938;SDS011;59064;45.294;11.816;2022-10-16T08:23:06;67.60;;;38.20;;
68938;SDS011;59064;45.294;11.816;2022-10-16T08:25:35;71.70;;;44.20;;
68938;SDS011;59064;45.294;11.816;2022-10-16T08:28:06;67.50;;;42.20;;
68938;SDS011;59064;45.294;11.816;2022-10-16T08:30:33;73.70;;;44.60;;
68938;SDS011;59064;45.294;11.816;2022-10-16T08:32:59;68.80;;;38.10;;
68938;SDS011;59064;45.294;11.816;2022-10-16T08:35:25;55.90;;;32.50;;
68938;SDS011;59064;45.294;11.816;2022-10-16T08:37:50;58.80;;;34.50;;
68938;SDS011;59064;45.294;11.816;2022-10-16T08:40:17;67.60;;;41.40;;
68938;SDS011;59064;45.294;11.816;2022-10-16T08:43:03;66.80;;;40.80;;
68938;SDS011;59064;45.294;11.816;2022-10-16T08:48:53;66.20;;;40.90;;
68938;SDS011;59064;45.294;11.816;2022-10-16T08:51:29;68.00;;;43.50;;
68938;SDS011;59064;45.294;11.816;2022-10-16T08:54:03;68.50;;;41.40;;
68938;SDS011;59064;45.294;11.816;2022-10-16T08:56:29;64.10;;;39.60;;
68938;SDS011;59064;45.294;11.816;2022-10-16T08:58:56;61.10;;;37.60;;
68938;SDS011;59064;45.294;11.816;2022-10-16T09:01:25;68.80;;;41.60;;
68938;SDS011;59064;45.294;11.816;2022-10-16T09:07:31;68.10;;;43.30;;
68938;SDS011;59064;45.294;11.816;2022-10-16T09:21:37;62.30;;;39.50;;
68938;SDS011;59064;45.294;11.816;2022-10-16T09:26:40;59.10;;;38.70;;
68938;SDS011;59064;45.294;11.816;2022-10-16T09:29:08;55.60;;;34.40;;
68938;SDS011;59064;45.294;11.816;2022-10-16T09:31:38;52.40;;;30.00;;
68938;SDS011;59064;45.294;11.816;2022-10-16T09:34:04;53.80;;;35.50;;
68938;SDS011;59064;45.294;11.816;2022-10-16T09:36:39;47.00;;;31.70;;
68938;SDS011;59064;45.294;11.816;2022-10-16T09:39:09;51.60;;;31.70;;
68938;SDS011;59064;45.294;11.816;2022-10-16T09:41:38;56.00;;;37.00;;
68938;SDS011;59064;45.294;11.816;2022-10-16T09:44:28;54.40;;;34.90;;
68938;SDS011;59064;45.294;11.816;2022-10-16T09:47:13;50.80;;;30.80;;
68938;SDS011;59064;45.294;11.816;2022-10-16T09:49:59;50.60;;;33.60;;
68938;SDS011;59064;45.294;11.816;2022-10-16T09:52:31;39.40;;;25.80;;
68938;SDS011;59064;45.294;11.816;2022-10-16T09:55:02;46.60;;;28.80;;
68938;SDS011;59064;45.294;11.816;2022-10-16T09:57:48;41.80;;;29.80;;
68938;SDS011;59064;45.294;11.816;2022-10-16T10:00:18;51.00;;;34.30;;
68938;SDS011;59064;45.294;11.816;2022-10-16T10:02:45;49.90;;;34.00;;
68938;SDS011;59064;45.294;11.816;2022-10-16T10:05:30;48.10;;;33.90;;
68938;SDS011;59064;45.294;11.816;2022-10-16T10:07:59;38.50;;;26.20;;
68938;SDS011;59064;45.294;11.816;2022-10-16T10:10:32;39.90;;;26.30;;
68938;SDS011;59064;45.294;11.816;2022-10-16T10:12:59;43.40;;;31.00;;
68938;SDS011;59064;45.294;11.816;2022-10-16T10:15:25;38.30;;;25.70;;
68938;SDS011;59064;45.294;11.816;2022-10-16T10:17:58;45.10;;;31.70;;
68938;SDS011;59064;45.294;11.816;2022-10-16T10:20:30;45.90;;;31.60;;
68938;SDS011;59064;45.294;11.816;2022-10-16T10:23:01;35.20;;;26.90;;
68938;SDS011;59064;45.294;11.816;2022-10-16T10:25:55;34.40;;;24.40;;
68938;SDS011;59064;45.294;11.816;2022-10-16T10:28:35;36.70;;;24.10;;
68938;SDS011;59064;45.294;11.816;2022-10-16T10:36:35;36.40;;;26.40;;
68938;SDS011;59064;45.294;11.816;2022-10-16T10:44:51;31.50;;;22.60;;
68938;SDS011;59064;45.294;11.816;2022-10-16T10:50:14;31.30;;;22.40;;
68938;SDS011;59064;45.294;11.816;2022-10-16T11:01:07;38.70;;;28.20;;
68938;SDS011;59064;45.294;11.816;2022-10-16T11:06:40;34.10;;;24.00;;
68938;SDS011;59064;45.294;11.816;2022-10-16T11:09:12;35.10;;;26.20;;
68938;SDS011;59064;45.294;11.816;2022-10-16T11:14:25;35.90;;;26.20;;
68938;SDS011;59064;45.294;11.816;2022-10-16T11:17:08;34.90;;;24.30;;
68938;SDS011;59064;45.294;11.816;2022-10-16T11:19:41;33.60;;;23.80;;
68938;SDS011;59064;45.294;11.816;2022-10-16T11:25:00;30.80;;;22.30;;
68938;SDS011;59064;45.294;11.816;2022-10-16T11:30:29;30.00;;;23.30;;
68938;SDS011;59064;45.294;11.816;2022-10-16T11:33:05;28.90;;;20.50;;
68938;SDS011;59064;45.294;11.816;2022-10-16T11:35:46;26.50;;;20.40;;
68938;SDS011;59064;45.294;11.816;2022-10-16T11:40:53;31.60;;;21.60;;
68938;SDS011;59064;45.294;11.816;2022-10-16T11:43:32;31.50;;;22.60;;
68938;SDS011;59064;45.294;11.816;2022-10-16T11:46:24;29.60;;;21.40;;
68938;SDS011;59064;45.294;11.816;2022-10-16T11:51:48;32.40;;;23.40;;
68938;SDS011;59064;45.294;11.816;2022-10-16T11:56:46;26.50;;;19.20;;
68938;SDS011;59064;45.294;11.816;2022-10-16T12:02:28;28.20;;;20.20;;
68938;SDS011;59064;45.294;11.816;2022-10-16T12:08:12;27.20;;;19.20;;
68938;SDS011;59064;45.294;11.816;2022-10-16T12:10:40;24.90;;;19.10;;
68938;SDS011;59064;45.294;11.816;2022-10-16T12:19:02;30.90;;;21.40;;
68938;SDS011;59064;45.294;11.816;2022-10-16T12:21:36;32.50;;;22.70;;
68938;SDS011;59064;45.294;11.816;2022-10-16T12:24:02;35.70;;;24.80;;
68938;SDS011;59064;45.294;11.816;2022-10-16T12:26:32;36.10;;;22.70;;
68938;SDS011;59064;45.294;11.816;2022-10-16T12:29:17;34.70;;;22.80;;
68938;SDS011;59064;45.294;11.816;2022-10-16T12:31:53;34.20;;;22.00;;
68938;SDS011;59064;45.294;11.816;2022-10-16T12:37:12;37.20;;;23.30;;
68938;SDS011;59064;45.294;11.816;2022-10-16T12:39:44;30.20;;;21.00;;
68938;SDS011;59064;45.294;11.816;2022-10-16T12:42:23;29.90;;;21.00;;
68938;SDS011;59064;45.294;11.816;2022-10-16T12:44:58;30.50;;;21.30;;
68938;SDS011;59064;45.294;11.816;2022-10-16T12:49:56;32.80;;;23.20;;
68938;SDS011;59064;45.294;11.816;2022-10-16T12:52:23;32.40;;;21.60;;
68938;SDS011;59064;45.294;11.816;2022-10-16T12:54:51;33.30;;;21.50;;
68938;SDS011;59064;45.294;11.816;2022-10-16T13:28:04;34.20;;;22.20;;
68938;SDS011;59064;45.294;11.816;2022-10-16T13:30:50;30.20;;;21.20;;
68938;SDS011;59064;45.294;11.816;2022-10-16T13:33:25;39.20;;;24.90;;
68938;SDS011;59064;45.294;11.816;2022-10-16T13:36:00;36.80;;;20.90;;
68938;SDS011;59064;45.294;11.816;2022-10-16T13:38:27;33.20;;;22.90;;
68938;SDS011;59064;45.294;11.816;2022-10-16T13:40:59;33.30;;;22.10;;
68938;SDS011;59064;45.294;11.816;2022-10-16T13:43:38;33.20;;;20.50;;
68938;SDS011;59064;45.294;11.816;2022-10-16T13:46:14;31.00;;;20.50;;
68938;SDS011;59064;45.294;11.816;2022-10-16T13:48:41;33.70;;;23.00;;
68938;SDS011;59064;45.294;11.816;2022-10-16T13:51:17;34.50;;;21.90;;
68938;SDS011;59064;45.294;11.816;2022-10-16T13:53:43;33.20;;;23.70;;
68938;SDS011;59064;45.294;11.816;2022-10-16T13:56:11;33.10;;;22.50;;
68938;SDS011;59064;45.294;11.816;2022-10-16T13:58:39;40.30;;;26.40;;
68938;SDS011;59064;45.294;11.816;2022-10-16T14:01:28;37.70;;;26.30;;
68938;SDS011;59064;45.294;11.816;2022-10-16T14:04:10;35.70;;;25.10;;
68938;SDS011;59064;45.294;11.816;2022-10-16T14:06:45;36.60;;;23.70;;
68938;SDS011;59064;45.294;11.816;2022-10-16T14:09:21;35.00;;;23.90;;
68938;SDS011;59064;45.294;11.816;2022-10-16T14:11:54;33.50;;;22.60;;
68938;SDS011;59064;45.294;11.816;2022-10-16T14:14:20;33.60;;;25.30;;
68938;SDS011;59064;45.294;11.816;2022-10-16T14:16:46;31.00;;;22.10;;
68938;SDS011;59064;45.294;11.816;2022-10-16T14:19:23;33.60;;;24.60;;
68938;SDS011;59064;45.294;11.816;2022-10-16T14:21:51;31.70;;;23.80;;
68938;SDS011;59064;45.294;11.816;2022-10-16T14:24:31;30.30;;;18.90;;
68938;SDS011;59064;45.294;11.816;2022-10-16T14:27:02;32.20;;;22.60;;
68938;SDS011;59064;45.294;11.816;2022-10-16T14:29:47;31.40;;;21.30;;
68938;SDS011;59064;45.294;11.816;2022-10-16T14:32:20;29.10;;;22.00;;
68938;SDS011;59064;45.294;11.816;2022-10-16T14:34:52;33.40;;;23.70;;
68938;SDS011;59064;45.294;11.816;2022-10-16T14:39:52;30.70;;;22.20;;
68938;SDS011;59064;45.294;11.816;2022-10-16T14:42:19;35.80;;;24.40;;
68938;SDS011;59064;45.294;11.816;2022-10-16T14:44:49;34.80;;;23.60;;
68938;SDS011;59064;45.294;11.816;2022-10-16T14:47:18;34.10;;;23.30;;
68938;SDS011;59064;45.294;11.816;2022-10-16T14:49:50;36.00;;;25.80;;
68938;SDS011;59064;45.294;11.816;2022-10-16T14:52:17;30.10;;;21.20;;
68938;SDS011;59064;45.294;11.816;2022-10-16T14:54:42;32.80;;;22.10;;
68938;SDS011;59064;45.294;11.816;2022-10-16T14:57:18;30.80;;;21.60;;
68938;SDS011;59064;45.294;11.816;2022-10-16T14:59:48;31.70;;;21.90;;
68938;SDS011;59064;45.294;11.816;2022-10-16T15:04:45;36.20;;;22.60;;
68938;SDS011;59064;45.294;11.816;2022-10-16T15:07:11;34.40;;;23.10;;
68938;SDS011;59064;45.294;11.816;2022-10-16T15:09:37;34.00;;;22.80;;
68938;SDS011;59064;45.294;11.816;2022-10-16T15:12:03;34.00;;;22.00;;
68938;SDS011;59064;45.294;11.816;2022-10-16T15:14:28;31.90;;;21.90;;
68938;SDS011;59064;45.294;11.816;2022-10-16T15:16:54;32.20;;;23.30;;
68938;SDS011;59064;45.294;11.816;2022-10-16T15:19:19;34.30;;;23.50;;
68938;SDS011;59064;45.294;11.816;2022-10-16T15:21:45;31.90;;;19.60;;
68938;SDS011;59064;45.294;11.816;2022-10-16T15:24:11;34.10;;;21.40;;
68938;SDS011;59064;45.294;11.816;2022-10-16T15:26:38;32.20;;;21.20;;
68938;SDS011;59064;45.294;11.816;2022-10-16T15:29:04;32.50;;;23.00;;
68938;SDS011;59064;45.294;11.816;2022-10-16T15:31:29;29.50;;;21.40;;
68938;SDS011;59064;45.294;11.816;2022-10-16T15:33:56;27.60;;;20.40;;
68938;SDS011;59064;45.294;11.816;2022-10-16T15:36:33;34.20;;;22.50;;
68938;SDS011;59064;45.294;11.816;2022-10-16T15:39:19;33.80;;;24.20;;
68938;SDS011;59064;45.294;11.816;2022-10-16T15:41:46;30.20;;;21.30;;
68938;SDS011;59064;45.294;11.816;2022-10-16T15:44:18;35.50;;;24.00;;
68938;SDS011;59064;45.294;11.816;2022-10-16T15:46:45;33.60;;;23.20;;
68938;SDS011;59064;45.294;11.816;2022-10-16T15:49:12;29.20;;;21.00;;
68938;SDS011;59064;45.294;11.816;2022-10-16T15:51:39;29.50;;;20.20;;
68938;SDS011;59064;45.294;11.816;2022-10-16T15:54:05;32.50;;;22.00;;
68938;SDS011;59064;45.294;11.816;2022-10-16T15:56:31;32.30;;;20.90;;
68938;SDS011;59064;45.294;11.816;2022-10-16T15:58:58;31.50;;;22.00;;
68938;SDS011;59064;45.294;11.816;2022-10-16T16:01:25;33.70;;;24.30;;
68938;SDS011;59064;45.294;11.816;2022-10-16T16:03:55;33.90;;;24.90;;
68938;SDS011;59064;45.294;11.816;2022-10-16T16:06:21;35.70;;;25.40;;
68938;SDS011;59064;45.294;11.816;2022-10-16T16:08:51;38.40;;;25.50;;
68938;SDS011;59064;45.294;11.816;2022-10-16T16:11:18;33.50;;;23.10;;
68938;SDS011;59064;45.294;11.816;2022-10-16T16:13:44;34.90;;;22.80;;
68938;SDS011;59064;45.294;11.816;2022-10-16T16:16:11;34.00;;;23.30;;
68938;SDS011;59064;45.294;11.816;2022-10-16T16:18:40;36.10;;;23.50;;
68938;SDS011;59064;45.294;11.816;2022-10-16T16:21:06;38.60;;;27.10;;
68938;SDS011;59064;45.294;11.816;2022-10-16T16:23:32;37.10;;;25.60;;
68938;SDS011;59064;45.294;11.816;2022-10-16T16:26:15;34.10;;;22.60;;
68938;SDS011;59064;45.294;11.816;2022-10-16T16:28:51;37.40;;;25.00;;